Airport View

Enter AWOS ICAO identifier for current METAR.

ex. KFNL

KCOS 261054Z 36004KT 10SM FEW250 12/06 A3014 RMK AO2 SLP124 T01170056

26 Jun 2019 11:48

Frequency: 125.000

Phone: 719-637-9696

Other Area AWOS: KFCS - KFLY - KAFF - KMNH

TAF KCOS 260523Z 2606/2706 02006KT P6SM FEW150 FM261600 19012KT P6SM SCT120 FM261900 19012G22KT P6SM SCT100 BKN200 FM270300 32008KT P6SM FEW100 BKN200